Flight Track Log - Related Links

Times and Time Zones

All times are in EDT time to prevent confusion due to time zone crossing. See the EJA831 flight status page for this flight to view local times or setup timezone preferences in your user account.

Time Position Orientation Groundspeed Altitude Reporting Facility
EDT Latitude Longitude Course Direction KTS MPH feet Rate Location/Type
Mon 07:07:57 AM 40.0167 -86.2500 229° Southwest 167 192 1,700  Level Indianapolis TRACON
Mon 07:08:45 AM 39.9833 -86.3000 229° Southwest 218 251 3,400 1,443 Climbing Indianapolis TRACON
Mon 07:09:16 AM 39.9661 -86.3150 214° Southwest 212 244 3,600 3,783 Climbing Indianapolis Center
Mon 07:10:17 AM 39.9222 -86.3614 219° Southwest 207 238 9,200 3,984 Climbing Indianapolis Center
Mon 07:11:18 AM 39.8472 -86.3622 180° South 269 310 11,700 2,852 Climbing Indianapolis Center
Mon 07:12:19 AM 39.7464 -86.3533 176° South 306 352 15,000 2,976 Climbing Indianapolis Center
Mon 07:13:21 AM 39.6583 -86.3425 175° South 321 369 17,800 2,341 Climbing Indianapolis Center
Mon 07:14:22 AM 39.5672 -86.3325 175° South 325 374 19,800 2,115 Climbing Indianapolis Center
Mon 07:15:23 AM 39.4700 -86.3225 175° South 343 395 22,100 2,213 Climbing Indianapolis Center
Mon 07:16:24 AM 39.3694 -86.3119 175° South 358 412 24,300 2,115 Climbing Indianapolis Center
Mon 07:17:25 AM 39.2669 -86.3011 175° South 364 419 26,400 1,854 Climbing Indianapolis Center
Mon 07:18:27 AM 39.1381 -86.2872 175° South 383 441 28,100 1,561 Climbing Indianapolis Center
Mon 07:19:28 AM 39.0247 -86.2767 176° South 401 461 29,600 1,721 Climbing Indianapolis Center
Mon 07:20:29 AM 38.9119 -86.2647 175° South 405 466 31,600 1,770 Climbing Indianapolis Center
Mon 07:21:30 AM 38.8147 -86.2539 175° South 404 465 33,200 1,805 Climbing Indianapolis Center
Mon 07:22:32 AM 38.6819 -86.2397 175° South 398 458 35,300 1,707 Climbing Indianapolis Center
Mon 07:23:33 AM 38.5733 -86.2056 166° South 400 460 36,700 1,328 Climbing Indianapolis Center
Mon 07:24:34 AM 38.4811 -86.1078 140° Southeast 423 487 38,000 1,328 Climbing Indianapolis Center
Mon 07:25:35 AM 38.4022 -85.9947 132° Southeast 423 487 39,400 976 Climbing Indianapolis Center
Mon 07:26:37 AM 38.3222 -85.8808 132° Southeast 424 488 40,000 293 Climbing Indianapolis Center
Mon 07:27:38 AM 38.2364 -85.7617 133° Southeast 444 511 40,000  Level Indianapolis Center
Mon 07:28:39 AM 38.1458 -85.6378 133° Southeast 469 540 40,000  Level Indianapolis Center
Mon 07:29:41 AM 38.0267 -85.5567 152° Southeast 474 545 40,000  Level Indianapolis Center
Mon 07:30:42 AM 37.8978 -85.5233 168° South 467 537 40,000  Level Indianapolis Center
Mon 07:31:43 AM 37.7725 -85.4883 168° South 470 541 40,000  Level Indianapolis Center
Mon 07:32:45 AM 37.6461 -85.4539 168° South 469 540 40,000  Level Indianapolis Center
Mon 07:33:46 AM 37.4989 -85.4144 168° South 468 539 40,000  Level Indianapolis Center
Mon 07:34:48 AM 37.3711 -85.3817 168° South 467 537 40,000  Level Indianapolis Center
Mon 07:35:49 AM 37.2450 -85.3478 168° South 465 535 40,000  Level Indianapolis Center
Mon 07:36:51 AM 37.1183 -85.3142 168° South 465 535 40,000  Level Indianapolis Center
Mon 07:37:52 AM 36.9844 -85.2786 168° South 465 535 40,000  Level Indianapolis Center
Mon 07:38:54 AM 36.8608 -85.2464 168° South 460 529 40,000 -195 Level Indianapolis Center
Mon 07:39:55 AM 36.7361 -85.2133 168° South 457 526 39,600 -439 Descending Indianapolis Center
Mon 07:40:57 AM 36.6119 -85.1817 168° South 457 526 39,100 -290 Descending Indianapolis Center
Mon 07:41:59 AM 36.4844 -85.1492 168° South 458 527 39,000 -49 Descending Indianapolis Center
Mon 07:43:00 AM 36.3581 -85.1156 168° South 463 533 39,000  Level Indianapolis Center
Mon 07:44:02 AM 36.2067 -85.0772 168° South 463 533 39,000  Level Indianapolis Center
Mon 07:45:04 AM 36.0831 -85.0456 168° South 461 531 39,000  Level Indianapolis Center
Mon 07:46:05 AM 35.9556 -85.0136 169° South 458 527 39,000  Level Indianapolis Center
Mon 07:47:07 AM 35.8308 -84.9819 168° South 456 525 39,000  Level Indianapolis Center
Mon 07:48:16 AM 35.6942 -84.9517 170° South 459 528 39,000  Level Atlanta Center
Mon 07:49:16 AM 35.5733 -84.9197 168° South 459 528 39,000  Level Atlanta Center
Mon 07:50:16 AM 35.4525 -84.8878 168° South 449 517 39,000  Level Atlanta Center
Mon 07:51:16 AM 35.3317 -84.8558 168° South 449 517 39,000  Level Atlanta Center
Mon 07:52:16 AM 35.2089 -84.8267 169° South 449 517 39,000  Level Atlanta Center
Mon 07:53:16 AM 35.0858 -84.7953 168° South 449 517 39,000  Level Atlanta Center
Mon 07:54:16 AM 34.9650 -84.7661 169° South 449 517 39,000  Level Atlanta Center
Mon 07:55:16 AM 34.8419 -84.7347 168° South 449 517 39,000  Level Atlanta Center
Mon 07:56:16 AM 34.7211 -84.7033 168° South 449 517 39,000  Level Atlanta Center
Mon 07:57:16 AM 34.6025 -84.6747 169° South 443 510 39,000  Level Atlanta Center
Mon 07:58:16 AM 34.4817 -84.6411 167° South 443 510 39,000  Level Atlanta Center
Mon 07:59:16 AM 34.3606 -84.6125 169° South 443 510 39,000  Level Atlanta Center
Mon 08:00:16 AM 34.2375 -84.5839 169° South 448 516 39,000  Level Atlanta Center
Mon 08:01:16 AM 34.1147 -84.5556 169° South 453 521 39,000  Level Atlanta Center
Mon 08:02:16 AM 33.9958 -84.5250 168° South 453 521 39,000  Level Atlanta Center
Mon 08:03:16 AM 33.8728 -84.4967 169° South 441 507 39,000  Level Atlanta Center
Mon 08:04:16 AM 33.7539 -84.4686 169° South 447 514 39,000  Level Atlanta Center
Mon 08:05:16 AM 33.6328 -84.4356 167° South 447 514 39,000  Level Atlanta Center
Mon 08:06:16 AM 33.5161 -84.3925 163° South 441 507 39,000  Level Atlanta Center
Mon 08:07:16 AM 33.4014 -84.3450 161° South 441 507 39,000  Level Atlanta Center
Mon 08:08:16 AM 33.2847 -84.2947 160° South 441 507 39,000  Level Atlanta Center
Mon 08:09:16 AM 33.1719 -84.2447 160° South 441 507 39,000  Level Atlanta Center
Mon 08:10:16 AM 33.0572 -84.1975 161° South 441 507 39,000  Level Atlanta Center
Mon 08:11:16 AM 32.9425 -84.1528 162° South 436 502 39,000  Level Atlanta Center
Mon 08:12:16 AM 32.8278 -84.1031 160° South 436 502 39,000  Level Atlanta Center
Mon 08:13:16 AM 32.7108 -84.0586 162° South 436 502 39,000  Level Atlanta Center
Mon 08:14:16 AM 32.5983 -84.0117 161° South 441 507 39,000  Level Atlanta Center
Mon 08:15:16 AM 32.4833 -83.9650 161° South 441 507 39,000  Level Atlanta Center
Mon 08:16:16 AM 32.3706 -83.9158 160° South 441 507 39,000  Level Atlanta Center
Mon 08:17:16 AM 32.2578 -83.8719 162° South 436 502 39,000  Level Atlanta Center
Mon 08:19:18 AM 32.0236 -83.7747 161° South 449 517 39,000  Level Jacksonville Center
Mon 08:20:18 AM 31.9153 -83.7297 161° South 435 501 39,000  Level Jacksonville Center
Mon 08:21:18 AM 31.8008 -83.6822 161° South 435 501 39,000  Level Jacksonville Center
Mon 08:22:18 AM 31.6883 -83.6372 161° South 435 501 39,000  Level Jacksonville Center
Mon 08:23:18 AM 31.5550 -83.5875 162° South 436 502 39,000  Level Jacksonville Center
Mon 08:24:18 AM 31.4425 -83.5478 163° South 436 502 39,000  Level Jacksonville Center
Mon 08:25:18 AM 31.3300 -83.5031 161° South 436 502 39,000  Level Jacksonville Center
Mon 08:26:18 AM 31.2153 -83.4633 164° South 436 502 39,000  Level Jacksonville Center
Mon 08:27:18 AM 31.1006 -83.4192 162° South 436 502 39,000  Level Jacksonville Center
Mon 08:28:18 AM 30.9881 -83.3772 162° South 436 502 39,000 -200 Level Jacksonville Center
Mon 08:29:18 AM 30.8756 -83.3306 160° South 436 502 38,600 -950 Descending Jacksonville Center
Mon 08:30:18 AM 30.7733 -83.2939 163° South 430 495 37,100 -800 Descending Jacksonville Center
Mon 08:31:18 AM 30.6564 -83.2500 162° South 430 495 37,000 -50 Descending Jacksonville Center
Mon 08:32:18 AM 30.5397 -83.2086 163° South 436 502 37,000  Level Jacksonville Center
Mon 08:33:18 AM 30.4228 -83.1647 162° South 441 507 37,000  Level Jacksonville Center
Mon 08:34:18 AM 30.3061 -83.1236 163° South 441 507 37,000  Level Jacksonville Center
Mon 08:35:18 AM 30.1892 -83.0800 162° South 441 507 37,000  Level Jacksonville Center
Mon 08:36:18 AM 30.0722 -83.0367 162° South 435 501 37,000  Level Jacksonville Center
Mon 08:37:18 AM 29.9533 -82.9981 164° South 441 507 37,000  Level Jacksonville Center
Mon 08:38:18 AM 29.8386 -82.9547 162° South 436 502 37,000  Level Jacksonville Center
Mon 08:39:18 AM 29.7236 -82.9142 163° South 436 502 37,000  Level Jacksonville Center
Mon 08:40:18 AM 29.6108 -82.8736 163° South 436 502 37,000  Level Jacksonville Center
Mon 08:41:18 AM 29.4814 -82.8211 161° South 442 509 37,000  Level Jacksonville Center
Mon 08:42:18 AM 29.3667 -82.7806 163° South 442 509 37,000  Level Jacksonville Center
Mon 08:43:18 AM 29.2497 -82.7378 162° South 442 509 37,000  Level Jacksonville Center
Mon 08:44:18 AM 29.1328 -82.6975 163° South 442 509 37,000  Level Jacksonville Center
Mon 08:45:18 AM 29.0178 -82.6575 163° South 442 509 37,000  Level Jacksonville Center
Mon 08:46:18 AM 28.9031 -82.6150 162° South 442 509 37,000  Level Jacksonville Center
Mon 08:47:18 AM 28.7839 -82.5750 164° South 442 509 37,000  Level Jacksonville Center
Mon 08:48:18 AM 28.6711 -82.5328 162° South 442 509 37,000  Level Jacksonville Center
Mon 08:49:18 AM 28.5542 -82.4931 163° South 437 503 37,000  Level Jacksonville Center
Mon 08:50:18 AM 28.4392 -82.4536 163° South 437 503 37,000  Level Jacksonville Center
Mon 08:51:55 AM 28.2486 -82.3850 162° South 445 512 37,000 -38 Level Miami Center
Mon 08:52:55 AM 28.1311 -82.3442 163° South 445 512 36,900 -1,000 Descending Miami Center
Mon 08:53:55 AM 28.0117 -82.3053 164° South 445 512 35,000 -950 Descending Miami Center
Mon 08:54:55 AM 27.8986 -82.2625 162° South 440 506 35,000  Level Miami Center
Mon 08:55:55 AM 27.7831 -82.2239 164° South 433 498 35,000 -300 Level Miami Center
Mon 08:56:55 AM 27.6617 -82.1808 163° South 433 498 34,400 -1,300 Descending Miami Center
Mon 08:57:55 AM 27.5464 -82.1403 163° South 438 504 32,400 -1,950 Descending Miami Center
Mon 08:58:55 AM 27.4411 -82.1075 165° South 433 498 30,500 -1,950 Descending Miami Center
Mon 08:59:55 AM 27.3236 -82.0647 162° South 433 498 28,500 -2,150 Descending Miami Center
Mon 09:00:55 AM 27.1936 -82.0214 163° South 438 504 26,200 -2,150 Descending Miami Center
Mon 09:01:55 AM 27.0761 -81.9836 164° South 438 504 24,200 -1,100 Descending Miami Center
Mon 09:02:55 AM 26.9750 -81.9489 163° South 431 496 24,000 -300 Descending Miami Center
Mon 09:03:55 AM 26.8667 -81.8883 153° Southeast 431 496 23,600 -1,250 Descending Miami Center
Mon 09:04:55 AM 26.7842 -81.7964 135° Southeast 417 480 21,500 -1,950 Descending Miami Center
Mon 09:05:55 AM 26.7036 -81.7094 136° Southeast 417 480 19,700 -1,250 Descending Miami Center
Mon 09:06:55 AM 26.6997 -81.5744 92° East 354 407 19,000 -350 Descending Miami Center
Mon 09:07:55 AM 26.7281 -81.4661 74° East 363 418 19,000 -200 Level Miami Center
Mon 09:08:55 AM 26.7547 -81.3511 75° East 381 438 18,600 -1,250 Descending Miami Center
Mon 09:09:55 AM 26.7833 -81.2358 74° East 391 450 16,500 -2,000 Descending Miami Center
Mon 09:10:55 AM 26.8094 -81.1275 75° East 370 426 14,600 -1,900 Descending Miami Center
Mon 09:11:55 AM 26.8211 -81.0186 83° East 355 409 12,700 -1,800 Descending Miami Center
Mon 09:12:55 AM 26.8322 -80.9142 83° East 343 395 11,000 -1,350 Descending Miami Center
Mon 09:13:55 AM 26.8164 -80.8067 99° East 331 381 10,000 -500 Descending Miami Center
Mon 09:14:55 AM 26.8294 -80.7139 81° East 299 344 10,000 -300 Level Miami Center
Mon 09:15:55 AM 26.8794 -80.6386 53° Northeast 292 336 9,400 -1,000 Descending Miami Center
Mon 09:16:55 AM 26.9247 -80.5797 49° Northeast 281 323 8,000 -1,400 Descending Miami Center
Mon 09:17:55 AM 26.9703 -80.5136 52° Northeast 268 308 6,600 -1,550 Descending Miami Center
Mon 09:18:55 AM 27.0200 -80.4453 51° Northeast 260 299 4,900 -1,300 Descending Miami Center
Mon 09:19:55 AM 27.0633 -80.3858 51° Northeast 254 292 4,000 -950 Descending Miami Center
Mon 09:20:55 AM 27.1042 -80.3311 50° Northeast 249 287 3,000 -1,000 Descending Miami Center
Mon 09:22:00 AM 27.1667 -80.2167 North  Level FlightAware Approximate
Mon 09:29:00 AM 27.1817 -80.2213 North  Level Estimated
Mon 09:30:00 AM 27.1817 -80.2213 North  Level Estimated
Mon 09:31:00 AM 27.1817 -80.2213 North  Level Estimated
Mon 09:32:00 AM 27.1817 -80.2213 North  Level Estimated
Mon 09:33:00 AM 27.1817 -80.2213 North  Level Estimated
Mon 09:34:00 AM 27.1817 -80.2213 North  Level Estimated

Login

Don't have an account? Register now (free) for customized features, flight alerts, and more!